Terminal Aerodrome Forecast
Issued by NWS Burlington, VT

Home | Current Version | Previous Version | Text Only | Print | Product List | Glossary On
Versions: 1 2 3 4 5 6 7 8 9 10 11 12 13 14 15 16 17 18 19
670
FTUS41 KBTV 231131
TAFBTV
TAF
KBTV 231131Z 2312/2412 33005KT P6SM SCT025 SCT130
      TEMPO 2312/2314 BKN025
     FM231400 27005KT P6SM BKN130
     FM232000 21005KT P6SM BKN100
     FM240100 19007KT P6SM BKN040
     FM240200 19007KT P6SM OVC030
     FM240800 19007KT P6SM SCT030=

USA.gov is the U.S. government's official web portal to all federal, state and local government web resources and services.